createdAt,value
2018-11-14T00:01:44.991Z,23.90
2018-11-14T00:04:38.549Z,23.90
2018-11-14T00:07:32.119Z,23.90
2018-11-14T00:10:31.729Z,23.90
2018-11-14T00:13:26.832Z,23.80
2018-11-14T00:16:20.500Z,23.80
2018-11-14T00:19:23.750Z,23.80
2018-11-14T00:22:08.263Z,23.80
2018-11-14T00:25:03.958Z,23.80
2018-11-14T00:27:59.520Z,23.70
2018-11-14T00:30:53.573Z,23.70
2018-11-14T00:33:48.861Z,23.70
2018-11-14T00:36:42.760Z,23.70
2018-11-14T00:39:37.355Z,23.60
2018-11-14T00:42:31.335Z,23.60
2018-11-14T00:45:25.618Z,23.60
2018-11-14T00:48:27.379Z,23.60
2018-11-14T00:51:21.464Z,23.60
2018-11-14T00:54:15.636Z,23.50
2018-11-14T00:57:12.903Z,23.60
2018-11-14T01:00:07.136Z,23.60
2018-11-14T01:03:03.008Z,23.60
2018-11-14T01:05:56.787Z,23.60
2018-11-14T01:08:50.455Z,23.70
2018-11-14T01:11:44.742Z,23.70
2018-11-14T01:14:38.514Z,23.70
2018-11-14T01:17:34.986Z,23.70
2018-11-14T01:20:28.528Z,23.70
2018-11-14T01:23:22.094Z,23.70
2018-11-14T01:26:15.604Z,23.70
2018-11-14T01:29:09.432Z,23.70
2018-11-14T01:32:03.413Z,23.70
2018-11-14T01:34:57.904Z,23.70
2018-11-14T01:37:51.988Z,23.70
2018-11-14T01:40:45.861Z,23.70
2018-11-14T01:43:42.920Z,23.70
2018-11-14T01:46:38.607Z,23.60
2018-11-14T01:49:34.142Z,23.70
2018-11-14T01:52:28.123Z,23.60
2018-11-14T01:55:22.843Z,23.70
2018-11-14T01:58:18.234Z,23.70
2018-11-14T02:01:12.310Z,23.70
2018-11-14T02:04:06.393Z,23.70
2018-11-14T02:07:00.269Z,23.70
2018-11-14T02:09:54.575Z,23.70
2018-11-14T02:12:48.462Z,23.70
2018-11-14T02:15:42.105Z,23.70
2018-11-14T02:18:35.568Z,23.70
2018-11-14T02:21:29.135Z,23.70
2018-11-14T02:24:23.117Z,23.80
2018-11-14T02:27:19.245Z,23.80
2018-11-14T02:30:21.853Z,23.80
2018-11-14T02:33:15.535Z,23.80
2018-11-14T02:36:09.266Z,23.80
2018-11-14T02:39:04.277Z,23.80
2018-11-14T02:41:58.359Z,23.90
2018-11-14T02:44:54.077Z,23.90
2018-11-14T02:47:48.056Z,23.90
2018-11-14T02:50:44.628Z,23.90
2018-11-14T02:53:38.269Z,23.90
2018-11-14T02:56:32.144Z,23.90
2018-11-14T02:59:28.069Z,24.00
2018-11-14T03:02:21.956Z,24.00
2018-11-14T03:05:17.565Z,24.00
2018-11-14T03:08:11.537Z,24.00
2018-11-14T03:11:05.013Z,24.10
2018-11-14T03:13:58.587Z,24.10
2018-11-14T03:16:52.456Z,24.20
2018-11-14T03:19:46.539Z,24.30
2018-11-14T03:22:42.027Z,24.30
2018-11-14T03:25:35.603Z,24.40
2018-11-14T03:31:22.970Z,24.50
2018-11-14T03:34:16.329Z,24.50
2018-11-14T03:37:09.891Z,24.60
2018-11-14T03:40:04.793Z,24.60
2018-11-14T03:43:00.000Z,24.60
2018-11-14T03:45:53.883Z,24.60
2018-11-14T03:48:49.497Z,24.70
2018-11-14T03:51:43.577Z,24.70
2018-11-14T03:54:37.553Z,24.70
2018-11-14T03:57:31.742Z,24.70
2018-11-14T04:00:25.616Z,24.80
2018-11-14T04:03:22.361Z,24.80
2018-11-14T04:06:16.133Z,24.90
2018-11-14T04:09:15.506Z,24.90
2018-11-14T04:12:09.321Z,24.90
2018-11-14T04:15:02.882Z,25.00
2018-11-14T04:17:56.552Z,25.00
2018-11-14T04:20:50.445Z,25.10
2018-11-14T04:23:50.659Z,25.10
2018-11-14T04:26:45.148Z,25.10
2018-11-14T04:29:41.073Z,25.20
2018-11-14T04:32:35.337Z,25.20
2018-11-14T04:35:29.133Z,25.30
2018-11-14T04:38:22.616Z,25.30
2018-11-14T04:41:17.294Z,25.40
2018-11-14T04:44:12.101Z,25.40
2018-11-14T04:47:07.300Z,25.50
2018-11-14T04:50:08.499Z,25.50
2018-11-14T04:53:10.571Z,25.60
2018-11-14T04:56:18.114Z,25.60
2018-11-14T04:59:12.390Z,25.70
2018-11-14T05:02:15.073Z,25.70
2018-11-14T05:05:14.257Z,25.80
2018-11-14T05:08:14.881Z,25.80
2018-11-14T05:11:21.202Z,25.90
2018-11-14T05:18:53.118Z,26.00
2018-11-14T05:25:05.029Z,26.30
2018-11-14T05:28:05.897Z,26.40
2018-11-14T05:31:07.091Z,26.50
2018-11-14T05:34:07.015Z,26.60
2018-11-14T05:37:04.757Z,26.60
2018-11-14T05:40:05.729Z,26.80
2018-11-14T05:43:02.752Z,26.80
2018-11-14T05:46:04.252Z,26.90
2018-11-14T05:49:06.599Z,26.90
2018-11-14T05:52:02.514Z,27.00
2018-11-14T05:54:58.941Z,27.00
2018-11-14T05:58:00.316Z,27.10
2018-11-14T06:01:55.695Z,27.10
2018-11-14T06:04:55.947Z,27.20
2018-11-14T06:07:52.393Z,27.20
2018-11-14T06:10:48.716Z,27.30
2018-11-14T06:13:49.215Z,27.30
2018-11-14T06:16:50.372Z,27.30
2018-11-14T06:19:46.128Z,27.30
2018-11-14T06:22:43.686Z,27.40
2018-11-14T06:25:42.225Z,27.50
2018-11-14T06:28:39.287Z,27.50
2018-11-14T06:31:35.036Z,27.60
2018-11-14T06:34:34.651Z,27.70
2018-11-14T06:37:42.068Z,27.70
2018-11-14T06:40:35.682Z,27.80
2018-11-14T06:43:54.905Z,27.90
2018-11-14T06:46:55.717Z,28.00
2018-11-14T06:49:53.105Z,28.20
2018-11-14T06:52:50.177Z,28.30
2018-11-14T06:55:53.388Z,28.40
2018-11-14T06:59:18.947Z,28.50
2018-11-14T07:02:14.630Z,28.60
2018-11-14T07:09:10.391Z,28.80
2018-11-14T07:12:45.814Z,28.90
2018-11-14T07:15:41.545Z,29.00
2018-11-14T07:18:42.460Z,29.10
2018-11-14T07:22:01.819Z,29.20
2018-11-14T07:32:11.596Z,29.30
2018-11-14T07:35:10.793Z,29.30
2018-11-14T07:38:48.272Z,29.30
2018-11-14T07:41:56.421Z,29.30
2018-11-14T07:45:06.089Z,29.30
2018-11-14T07:48:22.882Z,29.20
2018-11-14T07:51:21.998Z,29.20
2018-11-14T07:54:18.731Z,29.20
2018-11-14T07:57:15.608Z,29.20
2018-11-14T08:00:19.655Z,29.10
2018-11-14T08:03:14.053Z,29.10
2018-11-14T08:06:08.481Z,29.10
2018-11-14T08:09:06.242Z,29.20
2018-11-14T08:12:00.945Z,29.20
2018-11-14T08:14:56.730Z,29.20
2018-11-14T08:17:55.148Z,29.20
2018-11-14T08:20:53.060Z,29.20
2018-11-14T08:23:47.933Z,29.20
2018-11-14T08:26:49.083Z,29.20
2018-11-14T08:29:40.877Z,29.30
2018-11-14T08:32:50.609Z,29.30
2018-11-14T08:35:37.878Z,29.30
2018-11-14T08:38:33.918Z,29.30
2018-11-14T08:41:30.758Z,29.30
2018-11-14T08:45:26.698Z,29.30
2018-11-14T08:48:18.860Z,29.40
2018-11-14T08:51:14.708Z,29.40
2018-11-14T08:54:09.480Z,29.40
2018-11-14T08:57:12.112Z,29.40
2018-11-14T09:00:04.155Z,29.40
2018-11-14T09:03:30.784Z,29.40
2018-11-14T09:06:29.555Z,29.50
2018-11-14T09:09:31.913Z,29.60
2018-11-14T09:12:32.857Z,29.60
2018-11-14T09:15:34.498Z,29.70
2018-11-14T09:18:36.961Z,29.80
2018-11-14T09:21:42.006Z,29.80
2018-11-14T09:24:47.827Z,29.90
2018-11-14T09:27:59.618Z,30.00
2018-11-14T09:31:01.337Z,30.00
2018-11-14T09:34:01.695Z,30.10
2018-11-14T09:37:03.348Z,30.20
2018-11-14T09:39:59.846Z,30.30
2018-11-14T09:42:59.674Z,30.30
2018-11-14T09:45:56.529Z,30.30
2018-11-14T09:48:52.910Z,30.30
2018-11-14T09:51:55.101Z,30.30
2018-11-14T09:54:50.938Z,30.30
2018-11-14T09:57:52.543Z,30.30
2018-11-14T10:01:29.371Z,30.30
2018-11-14T10:04:19.488Z,30.30
2018-11-14T10:08:19.923Z,30.30
2018-11-14T10:11:04.828Z,30.30
2018-11-14T10:14:06.100Z,30.30
2018-11-14T10:17:07.084Z,30.20
2018-11-14T10:20:03.513Z,30.20
2018-11-14T10:23:03.396Z,30.20
2018-11-14T10:25:55.055Z,30.10
2018-11-14T10:28:52.690Z,30.10
2018-11-14T10:31:50.710Z,30.00
2018-11-14T10:34:52.678Z,30.00
2018-11-14T10:37:51.852Z,30.00
2018-11-14T10:40:51.543Z,30.00
2018-11-14T10:43:51.858Z,30.00
2018-11-14T10:46:52.409Z,29.90
2018-11-14T10:49:53.975Z,29.90
2018-11-14T10:52:50.707Z,29.90
2018-11-14T10:55:51.339Z,29.90
2018-11-14T11:02:46.767Z,29.80
2018-11-14T11:05:58.993Z,29.80
2018-11-14T11:09:14.267Z,29.80
2018-11-14T11:12:34.972Z,29.70
2018-11-14T11:15:48.675Z,29.70
2018-11-14T11:18:47.435Z,29.70
2018-11-14T11:21:46.343Z,29.60
2018-11-14T11:24:46.755Z,29.60
2018-11-14T11:27:44.855Z,29.60
2018-11-14T11:30:45.232Z,29.60
2018-11-14T11:33:39.271Z,29.50
2018-11-14T11:36:33.458Z,29.50
2018-11-14T11:39:31.930Z,29.40
2018-11-14T11:42:29.528Z,29.40
2018-11-14T11:45:26.842Z,29.30
2018-11-14T11:48:24.847Z,29.30
2018-11-14T11:51:21.658Z,29.20
2018-11-14T11:54:16.048Z,29.20
2018-11-14T11:57:14.517Z,29.10
2018-11-14T12:00:16.220Z,29.10
2018-11-14T12:03:21.733Z,29.00
2018-11-14T12:06:19.500Z,28.90
2018-11-14T12:09:15.322Z,28.90
2018-11-14T12:12:13.352Z,28.80
2018-11-14T12:15:14.502Z,28.80
2018-11-14T12:18:11.496Z,28.70
2018-11-14T12:21:15.327Z,28.70
2018-11-14T12:24:15.277Z,28.60
2018-11-14T12:27:20.163Z,28.60
2018-11-14T12:30:22.224Z,28.50
2018-11-14T12:33:17.641Z,28.50
2018-11-14T12:36:16.384Z,28.50
2018-11-14T12:39:13.895Z,28.40
2018-11-14T12:42:11.991Z,28.40
2018-11-14T12:45:09.327Z,28.40
2018-11-14T12:48:07.861Z,28.40
2018-11-14T12:51:12.905Z,28.40
2018-11-14T12:54:13.295Z,28.40
2018-11-14T12:57:09.393Z,28.40
2018-11-14T13:00:11.966Z,28.40
2018-11-14T13:03:08.308Z,28.40
2018-11-14T13:06:02.509Z,28.40
2018-11-14T13:08:56.103Z,28.40
2018-11-14T13:11:52.307Z,28.40
2018-11-14T13:14:46.278Z,28.30
2018-11-14T13:17:41.802Z,28.30
2018-11-14T13:20:46.020Z,28.30
2018-11-14T13:23:40.102Z,28.20
2018-11-14T13:26:33.876Z,28.20
2018-11-14T13:29:28.982Z,28.10
2018-11-14T13:32:22.595Z,28.10
2018-11-14T13:35:17.388Z,28.10
2018-11-14T13:38:11.530Z,28.00
2018-11-14T13:41:07.160Z,28.00
2018-11-14T13:44:04.412Z,28.00
2018-11-14T13:46:58.494Z,28.00
2018-11-14T13:49:53.692Z,28.00
2018-11-14T13:52:47.373Z,27.90
2018-11-14T13:55:41.652Z,27.90
2018-11-14T13:58:35.527Z,27.90
2018-11-14T14:01:32.066Z,27.80
2018-11-14T14:04:23.891Z,27.80
2018-11-14T14:07:18.252Z,27.80
2018-11-14T14:10:14.319Z,27.80
2018-11-14T14:13:13.464Z,27.70
2018-11-14T14:16:07.551Z,27.70
2018-11-14T14:19:01.573Z,27.70
2018-11-14T14:21:55.074Z,27.70
2018-11-14T14:24:48.910Z,27.60
2018-11-14T14:27:42.582Z,27.60
2018-11-14T14:30:36.570Z,27.60
2018-11-14T14:33:30.111Z,27.60
2018-11-14T14:36:24.107Z,27.60
2018-11-14T14:39:17.992Z,27.60
2018-11-14T14:42:11.862Z,27.60
2018-11-14T14:45:05.845Z,27.60
2018-11-14T14:48:01.671Z,27.60
2018-11-14T14:50:57.288Z,27.60
2018-11-14T14:53:52.899Z,27.60
2018-11-14T14:56:48.556Z,27.60
2018-11-14T14:59:42.492Z,27.60
2018-11-14T15:02:36.472Z,27.60
2018-11-14T15:05:30.143Z,27.50
2018-11-14T15:08:25.573Z,27.50
2018-11-14T15:11:19.537Z,27.50
2018-11-14T15:14:13.576Z,27.40
2018-11-14T15:17:07.887Z,27.40
2018-11-14T15:20:01.781Z,27.40
2018-11-14T15:22:56.090Z,27.40
2018-11-14T15:25:51.783Z,27.30
2018-11-14T15:28:45.983Z,27.30
2018-11-14T15:31:40.356Z,27.30
2018-11-14T15:34:34.333Z,27.30
2018-11-14T15:37:28.543Z,27.30
2018-11-14T15:40:23.706Z,27.30
2018-11-14T15:43:20.367Z,27.20
2018-11-14T15:46:14.313Z,27.20
2018-11-14T15:49:08.013Z,27.20
2018-11-14T15:52:02.007Z,27.20
2018-11-14T15:55:01.281Z,27.20
2018-11-14T15:57:52.533Z,27.20
2018-11-14T16:00:46.398Z,27.10
2018-11-14T16:03:40.582Z,27.10
2018-11-14T16:06:34.107Z,27.10
2018-11-14T16:09:30.170Z,27.10
2018-11-14T16:12:23.902Z,27.10
2018-11-14T16:15:18.574Z,27.00
2018-11-14T16:18:13.007Z,27.00
2018-11-14T16:21:06.420Z,27.00
2018-11-14T16:24:00.570Z,27.00
2018-11-14T16:26:54.251Z,27.00
2018-11-14T16:29:50.079Z,27.00
2018-11-14T16:32:44.587Z,27.00
2018-11-14T16:35:38.379Z,27.00
2018-11-14T16:38:33.130Z,27.00
2018-11-14T16:41:27.323Z,27.00
2018-11-14T16:44:21.194Z,27.00
2018-11-14T16:47:14.760Z,27.10
2018-11-14T16:50:08.675Z,27.10
2018-11-14T16:53:02.583Z,27.00
2018-11-14T16:55:57.005Z,27.00
2018-11-14T16:58:52.622Z,27.00
2018-11-14T17:01:46.808Z,27.00
2018-11-14T17:04:42.098Z,27.00
2018-11-14T17:07:36.299Z,27.00
2018-11-14T17:10:30.687Z,26.90
2018-11-14T17:13:24.976Z,26.90
2018-11-14T17:16:21.716Z,26.90
2018-11-14T17:19:19.178Z,26.80
2018-11-14T17:22:12.876Z,26.80
2018-11-14T17:25:08.263Z,26.80
2018-11-14T17:28:03.061Z,26.80
2018-11-14T17:30:57.353Z,26.70
2018-11-14T17:33:51.220Z,26.70
2018-11-14T17:36:48.170Z,26.70
2018-11-14T17:39:42.456Z,26.60
2018-11-14T17:42:36.157Z,26.60
2018-11-14T17:45:31.845Z,26.60
2018-11-14T17:48:27.158Z,26.60
2018-11-14T17:51:20.942Z,26.60
2018-11-14T17:54:14.708Z,26.50
2018-11-14T17:57:08.580Z,26.50
2018-11-14T18:00:01.921Z,26.50
2018-11-14T18:02:55.432Z,26.40
2018-11-14T18:05:49.184Z,26.40
2018-11-14T18:08:44.289Z,26.40
2018-11-14T18:11:39.396Z,26.40
2018-11-14T18:14:33.416Z,26.40
2018-11-14T18:17:26.994Z,26.40
2018-11-14T18:20:22.105Z,26.30
2018-11-14T18:23:15.841Z,26.30
2018-11-14T18:26:09.809Z,26.30
2018-11-14T18:29:03.457Z,26.30
2018-11-14T18:31:59.918Z,26.30
2018-11-14T18:34:54.401Z,26.30
2018-11-14T18:37:48.669Z,26.30
2018-11-14T18:40:44.977Z,26.30
2018-11-14T18:43:39.000Z,26.40
2018-11-14T18:46:35.861Z,26.40
2018-11-14T18:49:31.983Z,26.40
2018-11-14T18:52:31.495Z,26.40
2018-11-14T18:55:23.003Z,26.40
2018-11-14T18:58:16.432Z,26.30
2018-11-14T19:01:10.041Z,26.30
2018-11-14T19:04:04.531Z,26.20
2018-11-14T19:06:58.283Z,26.20
2018-11-14T19:09:51.671Z,26.20
2018-11-14T19:12:46.138Z,26.20
2018-11-14T19:15:41.368Z,26.10
2018-11-14T19:18:41.324Z,26.10
2018-11-14T19:21:34.852Z,26.10
2018-11-14T19:24:28.661Z,26.00
2018-11-14T19:27:24.351Z,26.00
2018-11-14T19:30:22.351Z,26.00
2018-11-14T19:33:15.791Z,26.00
2018-11-14T19:36:14.210Z,26.00
2018-11-14T19:39:10.299Z,25.90
2018-11-14T19:42:04.381Z,25.90
2018-11-14T19:44:58.358Z,25.90
2018-11-14T19:47:51.640Z,25.90
2018-11-14T19:50:45.710Z,25.80
2018-11-14T19:53:39.619Z,25.80
2018-11-14T19:56:33.455Z,25.80
2018-11-14T19:59:27.747Z,25.80
2018-11-14T20:02:21.234Z,25.80
2018-11-14T20:05:16.722Z,25.70
2018-11-14T20:08:11.015Z,25.70
2018-11-14T20:11:04.993Z,25.70
2018-11-14T20:13:58.981Z,25.70
2018-11-14T20:16:52.239Z,25.60
2018-11-14T20:19:47.653Z,25.60
2018-11-14T20:22:41.728Z,25.60
2018-11-14T20:25:35.841Z,25.60
2018-11-14T20:28:30.190Z,25.60
2018-11-14T20:31:25.722Z,25.60
2018-11-14T20:34:19.514Z,25.60
2018-11-14T20:37:13.427Z,25.60
2018-11-14T20:40:07.141Z,25.70
2018-11-14T20:43:01.398Z,25.70
2018-11-14T20:45:55.023Z,25.70
2018-11-14T20:48:52.034Z,25.70
2018-11-14T20:51:46.014Z,25.70
2018-11-14T20:54:39.735Z,25.70
2018-11-14T20:57:33.256Z,25.70
2018-11-14T21:00:36.575Z,25.60
2018-11-14T21:03:34.421Z,25.60
2018-11-14T21:06:35.875Z,25.60
2018-11-14T21:09:29.794Z,25.60
2018-11-14T21:12:24.138Z,25.50
2018-11-14T21:15:20.571Z,25.50
2018-11-14T21:18:15.613Z,25.50
2018-11-14T21:21:12.322Z,25.50
2018-11-14T21:24:06.311Z,25.40
2018-11-14T21:27:00.181Z,25.40
2018-11-14T21:29:54.165Z,25.40
2018-11-14T21:32:48.033Z,25.40
2018-11-14T21:35:44.797Z,25.30
2018-11-14T21:38:38.338Z,25.30
2018-11-14T21:41:32.940Z,25.30
2018-11-14T21:44:26.915Z,25.30
2018-11-14T21:47:37.184Z,25.30
2018-11-14T21:50:31.878Z,25.20
2018-11-14T21:53:27.058Z,25.20
2018-11-14T21:56:21.367Z,25.20
2018-11-14T21:59:14.935Z,25.20
2018-11-14T22:02:10.261Z,25.20
2018-11-14T22:05:04.238Z,25.20
2018-11-14T22:07:58.005Z,25.20
2018-11-14T22:10:51.771Z,25.10
2018-11-14T22:13:45.549Z,25.10
2018-11-14T22:16:39.320Z,25.10
2018-11-14T22:19:32.874Z,25.10
2018-11-14T22:22:26.795Z,25.10
2018-11-14T22:25:27.270Z,25.10
2018-11-14T22:28:20.868Z,25.10
2018-11-14T22:31:16.900Z,25.10
2018-11-14T22:34:10.782Z,25.10
2018-11-14T22:37:06.283Z,25.10
2018-11-14T22:39:59.958Z,25.10
2018-11-14T22:42:54.860Z,25.10
2018-11-14T22:45:49.145Z,25.20
2018-11-14T22:48:42.637Z,25.20
2018-11-14T22:51:40.177Z,25.20
2018-11-14T22:54:33.751Z,25.10
2018-11-14T22:57:27.541Z,25.10
2018-11-14T23:00:50.102Z,25.10
2018-11-14T23:03:43.952Z,25.10
2018-11-14T23:06:37.628Z,25.00
2018-11-14T23:09:31.596Z,25.00
2018-11-14T23:12:25.583Z,25.00
2018-11-14T23:15:21.160Z,24.90
2018-11-14T23:18:15.683Z,24.90
2018-11-14T23:21:09.669Z,24.90
2018-11-14T23:24:04.457Z,24.90
2018-11-14T23:26:58.130Z,24.80
2018-11-14T23:29:52.214Z,24.80
2018-11-14T23:32:54.216Z,24.80
2018-11-14T23:35:48.063Z,24.80
2018-11-14T23:38:41.620Z,24.80
2018-11-14T23:41:35.600Z,24.70
2018-11-14T23:44:30.293Z,24.70
2018-11-14T23:47:24.376Z,24.70
2018-11-14T23:50:19.622Z,24.70
2018-11-14T23:53:16.736Z,24.70
2018-11-14T23:56:10.819Z,24.70
2018-11-14T23:59:04.795Z,24.60
